sensor_id;sensor_type;location;lat;lon;timestamp;pressure;altitude;pressure_sealevel;temperature;humidity
32243;BME280;18731;42.830;24.390;2023-06-14T03:00:37;94268.59;;;16.56;95.30
32243;BME280;18731;42.830;24.390;2023-06-14T03:03:03;94268.66;;;16.63;95.60
32243;BME280;18731;42.830;24.390;2023-06-14T03:08:29;94269.88;;;16.69;94.14
32243;BME280;18731;42.830;24.390;2023-06-14T03:11:03;94271.84;;;16.73;93.87
32243;BME280;18731;42.830;24.390;2023-06-14T03:13:30;94269.53;;;16.71;93.84
32243;BME280;18731;42.830;24.390;2023-06-14T03:15:57;94269.91;;;16.73;93.86
32243;BME280;18731;42.830;24.390;2023-06-14T03:18:23;94271.84;;;16.73;93.37
32243;BME280;18731;42.830;24.390;2023-06-14T03:20:51;94270.34;;;16.79;92.92
32243;BME280;18731;42.830;24.390;2023-06-14T03:23:17;94262.69;;;16.81;92.52
32243;BME280;18731;42.830;24.390;2023-06-14T03:25:43;94271.16;;;16.83;92.45
32243;BME280;18731;42.830;24.390;2023-06-14T03:28:08;94267.31;;;16.84;92.62
32243;BME280;18731;42.830;24.390;2023-06-14T03:30:52;94262.69;;;16.81;93.17
32243;BME280;18731;42.830;24.390;2023-06-14T03:33:18;94260.00;;;16.84;93.27
32243;BME280;18731;42.830;24.390;2023-06-14T03:35:44;94259.97;;;16.81;92.79
32243;BME280;18731;42.830;24.390;2023-06-14T03:38:09;94269.63;;;16.82;92.57
32243;BME280;18731;42.830;24.390;2023-06-14T03:40:35;94265.75;;;16.79;92.80
32243;BME280;18731;42.830;24.390;2023-06-14T03:43:04;94269.63;;;16.82;92.97
32243;BME280;18731;42.830;24.390;2023-06-14T03:45:29;94280.44;;;16.85;93.13
32243;BME280;18731;42.830;24.390;2023-06-14T03:47:55;94275.06;;;16.89;93.60
32243;BME280;18731;42.830;24.390;2023-06-14T03:50:22;94278.56;;;16.93;93.78
32243;BME280;18731;42.830;24.390;2023-06-14T03:52:49;94272.03;;;16.94;93.96
32243;BME280;18731;42.830;24.390;2023-06-14T03:55:15;94279.72;;;16.92;93.67
32243;BME280;18731;42.830;24.390;2023-06-14T03:57:41;94282.75;;;16.87;93.46
32243;BME280;18731;42.830;24.390;2023-06-14T04:00:08;94285.84;;;16.89;93.18
32243;BME280;18731;42.830;24.390;2023-06-14T04:02:34;94282.81;;;16.94;93.43
32243;BME280;18731;42.830;24.390;2023-06-14T04:05:02;94289.00;;;16.98;93.60
32243;BME280;18731;42.830;24.390;2023-06-14T04:07:27;94285.56;;;17.01;94.08
32243;BME280;18731;42.830;24.390;2023-06-14T04:09:54;94297.94;;;17.09;93.48
32243;BME280;18731;42.830;24.390;2023-06-14T04:12:19;94299.88;;;17.09;93.03
32243;BME280;18731;42.830;24.390;2023-06-14T04:14:45;94294.88;;;17.11;92.30
32243;BME280;18731;42.830;24.390;2023-06-14T04:17:11;94302.22;;;17.14;91.95
32243;BME280;18731;42.830;24.390;2023-06-14T04:19:36;94306.44;;;17.11;92.00
32243;BME280;18731;42.830;24.390;2023-06-14T04:22:02;94298.34;;;17.11;92.11
32243;BME280;18731;42.830;24.390;2023-06-14T04:24:28;94304.88;;;17.07;92.06
32243;BME280;18731;42.830;24.390;2023-06-14T04:27:00;94308.38;;;17.11;92.10
32243;BME280;18731;42.830;24.390;2023-06-14T04:29:26;94301.44;;;17.13;91.94
32243;BME280;18731;42.830;24.390;2023-06-14T04:31:53;94306.09;;;17.16;91.83
32243;BME280;18731;42.830;24.390;2023-06-14T04:34:19;94307.63;;;17.14;91.85
32243;BME280;18731;42.830;24.390;2023-06-14T04:36:44;94310.69;;;17.12;92.09
32243;BME280;18731;42.830;24.390;2023-06-14T04:39:18;94311.41;;;17.06;92.84
32243;BME280;18731;42.830;24.390;2023-06-14T04:41:44;94316.00;;;17.01;93.15
32243;BME280;18731;42.830;24.390;2023-06-14T04:44:10;94314.41;;;16.97;93.48
32243;BME280;18731;42.830;24.390;2023-06-14T04:46:38;94320.22;;;16.99;93.42
32243;BME280;18731;42.830;24.390;2023-06-14T04:49:14;94317.50;;;16.99;94.05
32243;BME280;18731;42.830;24.390;2023-06-14T04:51:48;94317.84;;;16.94;95.41
32243;BME280;18731;42.830;24.390;2023-06-14T04:54:23;94314.41;;;16.97;95.65
32243;BME280;18731;42.830;24.390;2023-06-14T04:56:50;94311.78;;;17.04;95.53
32243;BME280;18731;42.830;24.390;2023-06-14T04:59:16;94314.53;;;17.11;94.83
32243;BME280;18731;42.830;24.390;2023-06-14T05:01:42;94315.34;;;17.15;94.36
32243;BME280;18731;42.830;24.390;2023-06-14T05:04:12;94314.25;;;17.23;93.62
32243;BME280;18731;42.830;24.390;2023-06-14T05:06:38;94315.06;;;17.31;93.46
32243;BME280;18731;42.830;24.390;2023-06-14T05:09:04;94316.31;;;17.41;93.52
32243;BME280;18731;42.830;24.390;2023-06-14T05:11:29;94314.81;;;17.47;93.24
32243;BME280;18731;42.830;24.390;2023-06-14T05:13:55;94322.56;;;17.55;92.69
32243;BME280;18731;42.830;24.390;2023-06-14T05:16:20;94318.81;;;17.67;92.13
32243;BME280;18731;42.830;24.390;2023-06-14T05:18:48;94320.00;;;17.73;89.37
32243;BME280;18731;42.830;24.390;2023-06-14T05:21:14;94323.50;;;17.77;90.60
32243;BME280;18731;42.830;24.390;2023-06-14T05:23:43;94318.03;;;17.66;90.39
32243;BME280;18731;42.830;24.390;2023-06-14T05:26:10;94327.31;;;17.69;90.43
32243;BME280;18731;42.830;24.390;2023-06-14T05:28:35;94328.84;;;17.66;91.25
32243;BME280;18731;42.830;24.390;2023-06-14T05:31:01;94328.06;;;17.66;90.88
32243;BME280;18731;42.830;24.390;2023-06-14T05:33:27;94327.22;;;17.62;90.68
32243;BME280;18731;42.830;24.390;2023-06-14T05:35:53;94331.88;;;17.65;90.32
32243;BME280;18731;42.830;24.390;2023-06-14T05:38:18;94334.19;;;17.63;91.47
32243;BME280;18731;42.830;24.390;2023-06-14T05:40:44;94332.69;;;17.69;92.02
32243;BME280;18731;42.830;24.390;2023-06-14T05:43:10;94336.63;;;17.82;91.50
32243;BME280;18731;42.830;24.390;2023-06-14T05:45:35;94330.88;;;17.87;92.39
32243;BME280;18731;42.830;24.390;2023-06-14T05:48:01;94333.59;;;17.87;91.02
32243;BME280;18731;42.830;24.390;2023-06-14T05:50:27;94336.63;;;17.82;89.72
32243;BME280;18731;42.830;24.390;2023-06-14T05:55:27;94337.81;;;17.85;90.84
32243;BME280;18731;42.830;24.390;2023-06-14T05:57:53;94345.16;;;17.88;93.23
32243;BME280;18731;42.830;24.390;2023-06-14T06:00:19;94348.22;;;17.86;90.60
32243;BME280;18731;42.830;24.390;2023-06-14T06:02:45;94342.09;;;17.93;90.36
32243;BME280;18731;42.830;24.390;2023-06-14T06:05:11;94345.66;;;18.08;90.80
32243;BME280;18731;42.830;24.390;2023-06-14T06:07:37;94346.13;;;18.24;86.77
32243;BME280;18731;42.830;24.390;2023-06-14T06:10:03;94347.72;;;18.32;86.24
32243;BME280;18731;42.830;24.390;2023-06-14T06:12:30;94341.97;;;18.41;85.29
32243;BME280;18731;42.830;24.390;2023-06-14T06:14:55;94341.63;;;18.60;83.59
32243;BME280;18731;42.830;24.390;2023-06-14T06:17:21;94340.19;;;18.84;84.91
32243;BME280;18731;42.830;24.390;2023-06-14T06:19:47;94345.63;;;19.05;84.21
32243;BME280;18731;42.830;24.390;2023-06-14T06:22:12;94350.66;;;19.32;83.31
32243;BME280;18731;42.830;24.390;2023-06-14T06:24:38;94341.38;;;19.33;80.22
32243;BME280;18731;42.830;24.390;2023-06-14T06:27:06;94341.41;;;19.57;80.46
32243;BME280;18731;42.830;24.390;2023-06-14T06:29:33;94337.13;;;19.67;78.82
32243;BME280;18731;42.830;24.390;2023-06-14T06:31:59;94331.69;;;19.88;79.04
32243;BME280;18731;42.830;24.390;2023-06-14T06:34:24;94334.34;;;20.03;77.09
32243;BME280;18731;42.830;24.390;2023-06-14T06:36:51;94333.13;;;20.25;76.05
32243;BME280;18731;42.830;24.390;2023-06-14T06:39:16;94333.03;;;20.53;75.40
32243;BME280;18731;42.830;24.390;2023-06-14T06:41:42;94338.44;;;20.57;73.45
32243;BME280;18731;42.830;24.390;2023-06-14T06:44:10;94337.56;;;20.74;74.40
32243;BME280;18731;42.830;24.390;2023-06-14T06:46:36;94334.44;;;20.79;74.28
32243;BME280;18731;42.830;24.390;2023-06-14T06:49:06;94338.69;;;20.88;73.59
32243;BME280;18731;42.830;24.390;2023-06-14T06:51:32;94338.06;;;21.21;74.40
32243;BME280;18731;42.830;24.390;2023-06-14T06:53:58;94337.03;;;21.56;71.68
32243;BME280;18731;42.830;24.390;2023-06-14T06:56:26;94338.47;;;21.71;73.40
32243;BME280;18731;42.830;24.390;2023-06-14T06:58:52;94345.91;;;22.05;72.31
32243;BME280;18731;42.830;24.390;2023-06-14T07:01:18;94351.13;;;22.26;69.10
32243;BME280;18731;42.830;24.390;2023-06-14T07:03:45;94348.84;;;22.21;66.16
32243;BME280;18731;42.830;24.390;2023-06-14T07:06:11;94356.13;;;21.90;68.57
32243;BME280;18731;42.830;24.390;2023-06-14T07:08:37;94356.28;;;21.76;68.91
32243;BME280;18731;42.830;24.390;2023-06-14T07:11:04;94348.59;;;21.67;68.34
32243;BME280;18731;42.830;24.390;2023-06-14T07:13:30;94355.13;;;21.73;70.46
32243;BME280;18731;42.830;24.390;2023-06-14T07:15:57;94348.91;;;21.76;69.36
32243;BME280;18731;42.830;24.390;2023-06-14T07:18:22;94351.59;;;21.76;69.89
32243;BME280;18731;42.830;24.390;2023-06-14T07:20:50;94350.97;;;21.62;66.27
32243;BME280;18731;42.830;24.390;2023-06-14T07:23:17;94337.84;;;21.53;69.25
32243;BME280;18731;42.830;24.390;2023-06-14T07:25:42;94346.66;;;21.64;68.90
32243;BME280;18731;42.830;24.390;2023-06-14T07:28:08;94342.13;;;21.50;68.98
32243;BME280;18731;42.830;24.390;2023-06-14T07:30:33;94344.06;;;21.54;72.56
32243;BME280;18731;42.830;24.390;2023-06-14T07:33:00;94353.78;;;21.51;68.55
32243;BME280;18731;42.830;24.390;2023-06-14T07:35:26;94349.81;;;21.59;66.75
32243;BME280;18731;42.830;24.390;2023-06-14T07:37:53;94354.13;;;21.57;68.01
32243;BME280;18731;42.830;24.390;2023-06-14T07:40:21;94351.47;;;21.49;70.72
32243;BME280;18731;42.830;24.390;2023-06-14T07:42:47;94343.88;;;21.27;67.29
32243;BME280;18731;42.830;24.390;2023-06-14T07:45:15;94347.34;;;21.31;70.16
32243;BME280;18731;42.830;24.390;2023-06-14T07:47:41;94350.47;;;21.26;71.89
32243;BME280;18731;42.830;24.390;2023-06-14T07:50:07;94344.56;;;21.38;70.63
32243;BME280;18731;42.830;24.390;2023-06-14T07:52:32;94348.78;;;21.42;67.32
32243;BME280;18731;42.830;24.390;2023-06-14T07:54:58;94342.16;;;21.47;67.48
32243;BME280;18731;42.830;24.390;2023-06-14T07:57:27;94348.03;;;21.42;67.35
32243;BME280;18731;42.830;24.390;2023-06-14T07:59:53;94341.00;;;21.48;68.57
32243;BME280;18731;42.830;24.390;2023-06-14T08:02:19;94347.97;;;21.49;65.59
32243;BME280;18731;42.830;24.390;2023-06-14T08:04:45;94349.41;;;21.61;66.29
32243;BME280;18731;42.830;24.390;2023-06-14T08:07:12;94358.25;;;21.72;63.16
32243;BME280;18731;42.830;24.390;2023-06-14T08:09:37;94357.84;;;21.73;64.03
32243;BME280;18731;42.830;24.390;2023-06-14T08:12:06;94357.00;;;21.80;63.91
32243;BME280;18731;42.830;24.390;2023-06-14T08:14:41;94356.25;;;21.79;64.36
32243;BME280;18731;42.830;24.390;2023-06-14T08:17:07;94356.50;;;21.92;64.29
32243;BME280;18731;42.830;24.390;2023-06-14T08:19:32;94364.81;;;21.74;67.46
32243;BME280;18731;42.830;24.390;2023-06-14T08:21:58;94371.00;;;21.78;67.90
32243;BME280;18731;42.830;24.390;2023-06-14T08:24:25;94365.56;;;21.78;66.76
32243;BME280;18731;42.830;24.390;2023-06-14T08:26:52;94374.00;;;21.88;64.85
32243;BME280;18731;42.830;24.390;2023-06-14T08:29:26;94375.56;;;21.89;66.83
32243;BME280;18731;42.830;24.390;2023-06-14T08:31:54;94377.09;;;21.90;64.38
32243;BME280;18731;42.830;24.390;2023-06-14T08:34:20;94380.25;;;21.85;64.13
32243;BME280;18731;42.830;24.390;2023-06-14T08:36:52;94382.66;;;21.75;62.89
32243;BME280;18731;42.830;24.390;2023-06-14T08:39:17;94383.47;;;21.72;64.40
32243;BME280;18731;42.830;24.390;2023-06-14T08:41:46;94389.22;;;21.81;64.95
32243;BME280;18731;42.830;24.390;2023-06-14T08:44:13;94391.88;;;21.89;66.32
32243;BME280;18731;42.830;24.390;2023-06-14T08:46:39;94382.03;;;22.02;67.23
32243;BME280;18731;42.830;24.390;2023-06-14T08:49:05;94388.00;;;21.86;67.12
32243;BME280;18731;42.830;24.390;2023-06-14T08:51:32;94389.22;;;21.81;67.75
32243;BME280;18731;42.830;24.390;2023-06-14T08:54:02;94393.09;;;21.80;67.15
32243;BME280;18731;42.830;24.390;2023-06-14T08:56:31;94402.88;;;21.71;68.25
32243;BME280;18731;42.830;24.390;2023-06-14T08:58:59;94389.75;;;21.62;67.85
32243;BME280;18731;42.830;24.390;2023-06-14T09:01:33;94391.66;;;21.69;68.86
32243;BME280;18731;42.830;24.390;2023-06-14T09:03:59;94391.03;;;21.47;69.41
32243;BME280;18731;42.830;24.390;2023-06-14T09:06:25;94387.59;;;21.39;70.78
32243;BME280;18731;42.830;24.390;2023-06-14T09:08:50;94386.00;;;21.45;71.40
32243;BME280;18731;42.830;24.390;2023-06-14T09:11:18;94391.56;;;21.28;70.41
32243;BME280;18731;42.830;24.390;2023-06-14T09:13:44;94388.38;;;21.40;70.75
32243;BME280;18731;42.830;24.390;2023-06-14T09:16:11;94397.38;;;21.30;70.56
32243;BME280;18731;42.830;24.390;2023-06-14T09:18:40;94390.00;;;21.30;71.07
32243;BME280;18731;42.830;24.390;2023-06-14T09:21:06;94390.03;;;21.23;71.04
32243;BME280;18731;42.830;24.390;2023-06-14T09:23:40;94391.06;;;21.43;70.32
32243;BME280;18731;42.830;24.390;2023-06-14T09:26:09;94391.28;;;21.67;71.07
32243;BME280;18731;42.830;24.390;2023-06-14T09:28:35;94392.22;;;21.91;69.14
32243;BME280;18731;42.830;24.390;2023-06-14T09:31:01;94392.66;;;21.86;69.22
32243;BME280;18731;42.830;24.390;2023-06-14T09:33:26;94391.31;;;22.08;69.92
32243;BME280;18731;42.830;24.390;2023-06-14T09:35:54;94384.28;;;22.48;67.27
32243;BME280;18731;42.830;24.390;2023-06-14T09:38:19;94388.56;;;22.83;64.22
32243;BME280;18731;42.830;24.390;2023-06-14T09:40:45;94389.72;;;23.13;63.76
32243;BME280;18731;42.830;24.390;2023-06-14T09:43:11;94384.25;;;23.43;64.99
32243;BME280;18731;42.830;24.390;2023-06-14T09:45:37;94383.59;;;23.62;61.25
32243;BME280;18731;42.830;24.390;2023-06-14T09:48:04;94382.81;;;23.62;60.18
32243;BME280;18731;42.830;24.390;2023-06-14T09:50:31;94381.47;;;23.73;61.78
32243;BME280;18731;42.830;24.390;2023-06-14T09:52:58;94387.50;;;23.85;61.55
32243;BME280;18731;42.830;24.390;2023-06-14T09:55:27;94378.25;;;24.02;59.07
32243;BME280;18731;42.830;24.390;2023-06-14T09:57:54;94383.69;;;24.02;59.56
32243;BME280;18731;42.830;24.390;2023-06-14T10:00:23;94374.28;;;24.07;57.23
32243;BME280;18731;42.830;24.390;2023-06-14T10:02:52;94372.66;;;24.09;58.10
32243;BME280;18731;42.830;24.390;2023-06-14T10:05:20;94377.16;;;24.19;58.79
32243;BME280;18731;42.830;24.390;2023-06-14T10:10:12;94363.78;;;24.28;57.08
32243;BME280;18731;42.830;24.390;2023-06-14T10:12:38;94367.22;;;24.32;58.95
32243;BME280;18731;42.830;24.390;2023-06-14T10:15:04;94365.59;;;24.35;58.47
32243;BME280;18731;42.830;24.390;2023-06-14T10:17:36;94357.84;;;24.10;57.72
32243;BME280;18731;42.830;24.390;2023-06-14T10:20:16;94363.22;;;23.94;57.66
32243;BME280;18731;42.830;24.390;2023-06-14T10:22:49;94359.53;;;23.81;58.19
32243;BME280;18731;42.830;24.390;2023-06-14T10:25:28;94359.78;;;23.90;59.15
32243;BME280;18731;42.830;24.390;2023-06-14T10:30:32;94357.50;;;24.08;58.15
32243;BME280;18731;42.830;24.390;2023-06-14T10:33:04;94358.69;;;24.07;57.10
32243;BME280;18731;42.830;24.390;2023-06-14T10:35:33;94359.22;;;23.98;57.92
32243;BME280;18731;42.830;24.390;2023-06-14T10:38:06;94360.47;;;23.94;57.87
32243;BME280;18731;42.830;24.390;2023-06-14T10:40:32;94368.94;;;23.99;58.04
32243;BME280;18731;42.830;24.390;2023-06-14T10:42:58;94361.47;;;24.03;58.57
32243;BME280;18731;42.830;24.390;2023-06-14T10:45:24;94354.06;;;24.04;57.55
32243;BME280;18731;42.830;24.390;2023-06-14T10:47:49;94354.88;;;24.24;59.00
32243;BME280;18731;42.830;24.390;2023-06-14T10:50:17;94355.66;;;24.45;57.08
32243;BME280;18731;42.830;24.390;2023-06-14T10:52:53;94352.94;;;24.64;55.36
32243;BME280;18731;42.830;24.390;2023-06-14T10:57:54;94344.09;;;24.77;56.74
32243;BME280;18731;42.830;24.390;2023-06-14T11:00:27;94348.84;;;24.92;56.77
32243;BME280;18731;42.830;24.390;2023-06-14T11:08:27;94344.13;;;24.37;57.47
32243;BME280;18731;42.830;24.390;2023-06-14T11:10:58;94341.47;;;24.33;56.62
32243;BME280;18731;42.830;24.390;2023-06-14T11:13:25;94346.50;;;24.35;58.00
32243;BME280;18731;42.830;24.390;2023-06-14T11:15:51;94344.78;;;24.21;57.69
32243;BME280;18731;42.830;24.390;2023-06-14T11:18:18;94347.41;;;24.28;57.16
32243;BME280;18731;42.830;24.390;2023-06-14T11:20:45;94345.22;;;24.20;56.85
32243;BME280;18731;42.830;24.390;2023-06-14T11:23:11;94347.06;;;24.26;57.48
32243;BME280;18731;42.830;24.390;2023-06-14T11:25:37;94339.69;;;24.23;57.05
32243;BME280;18731;42.830;24.390;2023-06-14T11:28:02;94332.34;;;24.20;56.78
32243;BME280;18731;42.830;24.390;2023-06-14T11:30:28;94336.38;;;24.35;57.41
32243;BME280;18731;42.830;24.390;2023-06-14T11:32:54;94325.94;;;24.50;57.33
32243;BME280;18731;42.830;24.390;2023-06-14T11:35:23;94322.72;;;24.55;57.08
32243;BME280;18731;42.830;24.390;2023-06-14T11:37:52;94325.88;;;24.54;55.69
32243;BME280;18731;42.830;24.390;2023-06-14T11:40:17;94325.28;;;24.82;55.32
32243;BME280;18731;42.830;24.390;2023-06-14T11:42:43;94325.28;;;24.82;55.60
32243;BME280;18731;42.830;24.390;2023-06-14T11:45:10;94319.03;;;24.82;56.48
32243;BME280;18731;42.830;24.390;2023-06-14T11:47:36;94319.97;;;25.11;53.61
32243;BME280;18731;42.830;24.390;2023-06-14T11:50:02;94310.00;;;25.37;52.66
32243;BME280;18731;42.830;24.390;2023-06-14T11:52:28;94313.41;;;25.57;52.45
32243;BME280;18731;42.830;24.390;2023-06-14T11:54:54;94316.16;;;25.57;51.35
32243;BME280;18731;42.830;24.390;2023-06-14T11:57:20;94313.66;;;25.63;52.16
32243;BME280;18731;42.830;24.390;2023-06-14T11:59:45;94317.88;;;25.68;51.61
32243;BME280;18731;42.830;24.390;2023-06-14T12:02:14;94311.72;;;25.80;51.33
32243;BME280;18731;42.830;24.390;2023-06-14T12:04:40;94307.59;;;25.88;51.10
32243;BME280;18731;42.830;24.390;2023-06-14T12:07:24;94298.66;;;25.71;51.07
32243;BME280;18731;42.830;24.390;2023-06-14T12:12:17;94303.94;;;25.78;52.57
32243;BME280;18731;42.830;24.390;2023-06-14T12:14:42;94300.94;;;25.89;51.47
32243;BME280;18731;42.830;24.390;2023-06-14T12:17:08;94295.59;;;26.14;51.27
32243;BME280;18731;42.830;24.390;2023-06-14T12:19:40;94300.72;;;26.12;51.56
32243;BME280;18731;42.830;24.390;2023-06-14T12:22:06;94291.47;;;26.22;50.14
32243;BME280;18731;42.830;24.390;2023-06-14T12:24:34;94281.84;;;26.31;50.54
32243;BME280;18731;42.830;24.390;2023-06-14T12:27:00;94280.16;;;26.37;49.88
32243;BME280;18731;42.830;24.390;2023-06-14T12:29:28;94275.69;;;26.14;50.14
32243;BME280;18731;42.830;24.390;2023-06-14T12:31:54;94276.13;;;26.54;51.53
32243;BME280;18731;42.830;24.390;2023-06-14T12:34:21;94270.91;;;26.72;49.35
32243;BME280;18731;42.830;24.390;2023-06-14T12:36:47;94270.00;;;26.63;49.04
32243;BME280;18731;42.830;24.390;2023-06-14T12:39:12;94261.44;;;26.35;49.33
32243;BME280;18731;42.830;24.390;2023-06-14T12:41:38;94262.19;;;26.36;50.78
32243;BME280;18731;42.830;24.390;2023-06-14T12:44:06;94260.50;;;26.67;49.13
32243;BME280;18731;42.830;24.390;2023-06-14T12:46:31;94270.91;;;26.31;48.42
32243;BME280;18731;42.830;24.390;2023-06-14T12:48:57;94268.03;;;26.21;49.05
32243;BME280;18731;42.830;24.390;2023-06-14T12:51:23;94267.78;;;26.32;48.71
32243;BME280;18731;42.830;24.390;2023-06-14T12:53:50;94262.28;;;26.03;49.49
32243;BME280;18731;42.830;24.390;2023-06-14T12:56:15;94262.56;;;26.21;48.35
32243;BME280;18731;42.830;24.390;2023-06-14T12:58:41;94257.59;;;26.33;50.28
32243;BME280;18731;42.830;24.390;2023-06-14T13:01:07;94270.44;;;26.19;49.03
32243;BME280;18731;42.830;24.390;2023-06-14T13:03:33;94256.88;;;26.00;48.87
32243;BME280;18731;42.830;24.390;2023-06-14T13:05:59;94257.66;;;26.00;50.52
32243;BME280;18731;42.830;24.390;2023-06-14T13:08:25;94253.88;;;25.81;50.12
32243;BME280;18731;42.830;24.390;2023-06-14T13:10:50;94244.84;;;25.68;50.90
32243;BME280;18731;42.830;24.390;2023-06-14T13:13:16;94249.13;;;25.53;50.92
32243;BME280;18731;42.830;24.390;2023-06-14T13:15:41;94248.63;;;25.42;52.10
32243;BME280;18731;42.830;24.390;2023-06-14T13:18:07;94247.34;;;25.30;52.16
32243;BME280;18731;42.830;24.390;2023-06-14T13:20:33;94253.56;;;25.30;53.03
32243;BME280;18731;42.830;24.390;2023-06-14T13:22:58;94248.38;;;25.20;52.92
32243;BME280;18731;42.830;24.390;2023-06-14T13:25:24;94253.66;;;25.11;52.87
32243;BME280;18731;42.830;24.390;2023-06-14T13:27:49;94249.06;;;25.08;53.96
32243;BME280;18731;42.830;24.390;2023-06-14T13:30:15;94256.47;;;25.07;56.59
32243;BME280;18731;42.830;24.390;2023-06-14T13:32:40;94260.75;;;24.72;55.01
32243;BME280;18731;42.830;24.390;2023-06-14T13:35:06;94251.69;;;24.59;55.60
32243;BME280;18731;42.830;24.390;2023-06-14T13:37:32;94252.69;;;24.49;56.25
32243;BME280;18731;42.830;24.390;2023-06-14T13:39:57;94256.97;;;24.50;57.54
32243;BME280;18731;42.830;24.390;2023-06-14T13:42:26;94257.19;;;24.39;56.33
32243;BME280;18731;42.830;24.390;2023-06-14T13:44:51;94253.91;;;24.28;57.37
32243;BME280;18731;42.830;24.390;2023-06-14T13:47:17;94249.22;;;24.28;56.51
32243;BME280;18731;42.830;24.390;2023-06-14T13:49:43;94242.09;;;24.34;56.57
32243;BME280;18731;42.830;24.390;2023-06-14T13:52:09;94243.47;;;24.43;56.77
32243;BME280;18731;42.830;24.390;2023-06-14T13:54:34;94243.47;;;24.43;56.11
32243;BME280;18731;42.830;24.390;2023-06-14T13:57:01;94235.97;;;24.47;56.46
32243;BME280;18731;42.830;24.390;2023-06-14T13:59:26;94242.16;;;24.31;56.60
32243;BME280;18731;42.830;24.390;2023-06-14T14:01:51;94246.97;;;24.43;55.37
32243;BME280;18731;42.830;24.390;2023-06-14T14:04:17;94252.75;;;24.81;53.80
32243;BME280;18731;42.830;24.390;2023-06-14T14:06:42;94242.88;;;24.87;54.09
32243;BME280;18731;42.830;24.390;2023-06-14T14:09:08;94235.53;;;24.84;54.60
32243;BME280;18731;42.830;24.390;2023-06-14T14:11:34;94236.53;;;24.74;54.72
32243;BME280;18731;42.830;24.390;2023-06-14T14:13:59;94232.00;;;24.67;54.82
32243;BME280;18731;42.830;24.390;2023-06-14T14:16:25;94236.81;;;24.44;55.31
32243;BME280;18731;42.830;24.390;2023-06-14T14:18:51;94239.97;;;24.22;55.41
32243;BME280;18731;42.830;24.390;2023-06-14T14:21:16;94240.06;;;23.99;56.55
32243;BME280;18731;42.830;24.390;2023-06-14T14:23:42;94238.59;;;24.14;56.97
32243;BME280;18731;42.830;24.390;2023-06-14T14:26:07;94242.50;;;24.13;56.94
32243;BME280;18731;42.830;24.390;2023-06-14T14:28:32;94234.38;;;23.90;56.64
32243;BME280;18731;42.830;24.390;2023-06-14T14:30:58;94242.34;;;23.81;57.17
32243;BME280;18731;42.830;24.390;2023-06-14T14:33:24;94252.47;;;23.80;57.89
32243;BME280;18731;42.830;24.390;2023-06-14T14:35:50;94257.16;;;23.80;57.82
32243;BME280;18731;42.830;24.390;2023-06-14T14:38:15;94251.44;;;23.51;59.38
32243;BME280;18731;42.830;24.390;2023-06-14T14:40:41;94242.13;;;23.48;59.49
32243;BME280;18731;42.830;24.390;2023-06-14T14:43:07;94243.38;;;23.44;60.18
32243;BME280;18731;42.830;24.390;2023-06-14T14:45:32;94244.38;;;23.30;60.01
32243;BME280;18731;42.830;24.390;2023-06-14T14:47:58;94235.56;;;23.22;60.92
32243;BME280;18731;42.830;24.390;2023-06-14T14:50:24;94232.53;;;23.17;61.62
32243;BME280;18731;42.830;24.390;2023-06-14T14:52:50;94226.50;;;23.05;62.75
32243;BME280;18731;42.830;24.390;2023-06-14T14:55:15;94228.03;;;23.06;63.28
32243;BME280;18731;42.830;24.390;2023-06-14T14:57:41;94223.34;;;23.07;63.37
32243;BME280;18731;42.830;24.390;2023-06-14T15:00:06;94224.19;;;23.04;63.78
32243;BME280;18731;42.830;24.390;2023-06-14T15:02:33;94224.91;;;23.08;65.27
32243;BME280;18731;42.830;24.390;2023-06-14T15:04:58;94221.00;;;23.09;64.79
32243;BME280;18731;42.830;24.390;2023-06-14T15:07:28;94224.25;;;23.00;65.41
32243;BME280;18731;42.830;24.390;2023-06-14T15:09:58;94227.97;;;23.10;64.90
32243;BME280;18731;42.830;24.390;2023-06-14T15:12:23;94230.22;;;23.15;64.78
32243;BME280;18731;42.830;24.390;2023-06-14T15:14:50;94224.94;;;23.04;63.62
32243;BME280;18731;42.830;24.390;2023-06-14T15:17:16;94231.63;;;23.00;63.70
32243;BME280;18731;42.830;24.390;2023-06-14T15:19:41;94241.63;;;22.83;64.39
32243;BME280;18731;42.830;24.390;2023-06-14T15:22:07;94258.84;;;22.73;64.48
32243;BME280;18731;42.830;24.390;2023-06-14T15:24:32;94257.41;;;22.65;65.00
32243;BME280;18731;42.830;24.390;2023-06-14T15:26:58;94263.03;;;22.51;65.02
32243;BME280;18731;42.830;24.390;2023-06-14T15:29:23;94262.69;;;22.49;66.27
32243;BME280;18731;42.830;24.390;2023-06-14T15:31:48;94271.91;;;22.55;65.57
32243;BME280;18731;42.830;24.390;2023-06-14T15:34:14;94282.47;;;22.49;66.14
32243;BME280;18731;42.830;24.390;2023-06-14T15:36:40;94276.81;;;22.36;67.13
32243;BME280;18731;42.830;24.390;2023-06-14T15:39:06;94275.78;;;22.27;66.21
32243;BME280;18731;42.830;24.390;2023-06-14T15:41:31;94270.06;;;22.18;68.61
32243;BME280;18731;42.830;24.390;2023-06-14T15:43:57;94285.28;;;22.11;69.76
32243;BME280;18731;42.830;24.390;2023-06-14T15:46:22;94297.38;;;22.07;71.41
32243;BME280;18731;42.830;24.390;2023-06-14T15:48:48;94303.28;;;21.95;72.65
32243;BME280;18731;42.830;24.390;2023-06-14T15:51:14;94301.78;;;21.90;71.67
32243;BME280;18731;42.830;24.390;2023-06-14T15:53:40;94295.66;;;21.82;70.61
32243;BME280;18731;42.830;24.390;2023-06-14T15:56:06;94288.84;;;21.67;70.88
32243;BME280;18731;42.830;24.390;2023-06-14T15:58:31;94290.41;;;21.65;71.16
32243;BME280;18731;42.830;24.390;2023-06-14T16:00:57;94290.78;;;21.67;71.84
32243;BME280;18731;42.830;24.390;2023-06-14T16:03:22;94296.97;;;21.67;73.87
32243;BME280;18731;42.830;24.390;2023-06-14T16:05:47;94309.78;;;21.67;75.24
32243;BME280;18731;42.830;24.390;2023-06-14T16:08:13;94321.44;;;21.67;75.68